createdAt,value
2022-09-28T00:00:47.345Z,9.10
2022-09-28T00:01:47.368Z,9.16
2022-09-28T00:02:47.335Z,9.16
2022-09-28T00:03:47.234Z,9.19
2022-09-28T00:04:47.191Z,9.15
2022-09-28T00:05:47.138Z,9.03
2022-09-28T00:06:47.097Z,9.17
2022-09-28T00:07:47.057Z,9.08
2022-09-28T00:08:47.016Z,9.17
2022-09-28T00:09:46.973Z,9.16
2022-09-28T00:10:46.971Z,9.13
2022-09-28T00:11:46.893Z,9.12
2022-09-28T00:12:46.849Z,9.06
2022-09-28T00:13:46.811Z,9.10
2022-09-28T00:14:46.767Z,9.06
2022-09-28T00:15:46.725Z,9.06
2022-09-28T00:16:46.764Z,9.13
2022-09-28T00:17:46.642Z,9.13
2022-09-28T00:18:46.606Z,9.15
2022-09-28T00:19:46.560Z,9.15
2022-09-28T00:20:46.525Z,9.06
2022-09-28T00:21:46.494Z,9.03
2022-09-28T00:22:46.437Z,8.98
2022-09-28T00:23:46.395Z,9.15
2022-09-28T00:24:46.356Z,9.01
2022-09-28T00:25:46.319Z,9.04
2022-09-28T00:26:46.272Z,9.08
2022-09-28T00:27:46.242Z,9.06
2022-09-28T00:28:46.189Z,9.04
2022-09-28T00:29:46.150Z,9.04
2022-09-28T00:30:46.107Z,9.01
2022-09-28T00:31:46.128Z,8.98
2022-09-28T00:32:46.024Z,8.91
2022-09-28T00:33:45.995Z,9.00
2022-09-28T00:34:46.013Z,8.98
2022-09-28T00:35:45.902Z,9.01
2022-09-28T00:36:45.862Z,8.93
2022-09-28T00:37:45.816Z,8.96
2022-09-28T00:38:45.777Z,8.88
2022-09-28T00:39:45.750Z,8.97
2022-09-28T00:40:45.718Z,9.01
2022-09-28T00:41:45.652Z,9.12
2022-09-28T00:42:45.614Z,9.01
2022-09-28T00:43:45.571Z,9.06
2022-09-28T00:44:45.531Z,9.00
2022-09-28T00:45:45.544Z,9.06
2022-09-28T00:46:45.448Z,9.06
2022-09-28T00:47:45.406Z,9.06
2022-09-28T00:48:45.365Z,9.01
2022-09-28T00:49:45.323Z,9.12
2022-09-28T00:50:45.280Z,9.06
2022-09-28T00:51:45.255Z,9.06
2022-09-28T00:52:45.201Z,9.10
2022-09-28T00:53:45.159Z,8.97
2022-09-28T00:54:45.118Z,9.01
2022-09-28T00:55:45.092Z,9.03
2022-09-28T00:56:45.032Z,9.04
2022-09-28T00:57:44.992Z,8.98
2022-09-28T00:58:44.950Z,9.01
2022-09-28T00:59:44.910Z,8.89
2022-09-28T01:00:44.902Z,8.98
2022-09-28T01:01:44.878Z,8.93
2022-09-28T01:02:44.786Z,8.94
2022-09-28T01:03:44.744Z,8.93
2022-09-28T01:04:44.702Z,9.01
2022-09-28T01:05:44.661Z,8.93
2022-09-28T01:06:44.621Z,8.91
2022-09-28T01:07:44.592Z,8.93
2022-09-28T01:08:44.539Z,9.08
2022-09-28T01:09:44.498Z,8.96
2022-09-28T01:10:44.456Z,9.04
2022-09-28T01:11:44.414Z,9.01
2022-09-28T01:12:44.371Z,9.03
2022-09-28T01:13:44.352Z,9.06
2022-09-28T01:14:44.292Z,8.98
2022-09-28T01:15:44.246Z,8.97
2022-09-28T01:16:44.262Z,9.01
2022-09-28T01:17:44.165Z,8.97
2022-09-28T01:18:44.123Z,8.94
2022-09-28T01:19:44.094Z,9.00
2022-09-28T01:20:44.042Z,8.97
2022-09-28T01:21:43.998Z,9.13
2022-09-28T01:22:43.958Z,9.03
2022-09-28T01:23:43.920Z,9.03
2022-09-28T01:24:43.875Z,8.89
2022-09-28T01:25:43.847Z,8.98
2022-09-28T01:26:43.790Z,8.97
2022-09-28T01:27:43.755Z,8.93
2022-09-28T01:28:43.715Z,8.96
2022-09-28T01:29:43.669Z,8.94
2022-09-28T01:30:43.628Z,8.89
2022-09-28T01:31:43.638Z,8.83
2022-09-28T01:32:43.552Z,8.93
2022-09-28T01:33:43.505Z,8.98
2022-09-28T01:34:43.465Z,8.88
2022-09-28T01:35:43.419Z,8.89
2022-09-28T01:36:43.381Z,8.89
2022-09-28T01:37:43.355Z,8.93
2022-09-28T01:38:43.300Z,8.88
2022-09-28T01:39:43.255Z,8.85
2022-09-28T01:40:43.260Z,8.91
2022-09-28T01:41:43.172Z,8.91
2022-09-28T01:42:43.143Z,8.89
2022-09-28T01:43:43.094Z,9.03
2022-09-28T01:44:43.051Z,8.97
2022-09-28T01:45:43.024Z,8.93
2022-09-28T01:46:42.965Z,8.89
2022-09-28T01:47:42.938Z,8.88
2022-09-28T01:48:42.899Z,8.98
2022-09-28T01:49:42.844Z,8.91
2022-09-28T01:50:42.809Z,8.94
2022-09-28T01:51:42.757Z,8.93
2022-09-28T01:52:42.733Z,8.91
2022-09-28T01:53:42.712Z,8.93
2022-09-28T01:54:42.644Z,8.83
2022-09-28T01:55:42.601Z,8.93
2022-09-28T01:56:42.553Z,8.94
2022-09-28T01:57:42.514Z,8.97
2022-09-28T01:58:42.470Z,9.00
2022-09-28T01:59:42.439Z,8.96
2022-09-28T02:00:42.429Z,8.91
2022-09-28T02:01:42.371Z,8.91
2022-09-28T02:02:42.306Z,8.91
2022-09-28T02:03:42.265Z,8.98
2022-09-28T02:04:42.235Z,8.79
2022-09-28T02:05:42.182Z,8.86
2022-09-28T02:06:42.140Z,8.79
2022-09-28T02:07:42.102Z,8.89
2022-09-28T02:08:42.063Z,8.93
2022-09-28T02:09:42.019Z,8.91
2022-09-28T02:10:41.991Z,8.94
2022-09-28T02:11:41.932Z,8.89
2022-09-28T02:12:41.893Z,9.04
2022-09-28T02:13:41.851Z,8.97
2022-09-28T02:14:41.810Z,9.01
2022-09-28T02:15:41.779Z,8.98
2022-09-28T02:16:41.787Z,9.03
2022-09-28T02:17:41.689Z,9.00
2022-09-28T02:18:41.645Z,9.06
2022-09-28T02:19:41.600Z,9.00
2022-09-28T02:20:41.563Z,9.00
2022-09-28T02:21:41.532Z,8.94
2022-09-28T02:22:41.478Z,8.93
2022-09-28T02:23:41.437Z,8.89
2022-09-28T02:24:41.412Z,9.04
2022-09-28T02:25:41.354Z,8.98
2022-09-28T02:26:41.313Z,8.96
2022-09-28T02:27:41.289Z,8.91
2022-09-28T02:28:41.232Z,8.98
2022-09-28T02:29:41.188Z,8.97
2022-09-28T02:30:41.150Z,8.96
2022-09-28T02:31:41.154Z,8.97
2022-09-28T02:32:41.064Z,8.91
2022-09-28T02:33:41.036Z,8.96
2022-09-28T02:34:40.986Z,8.91
2022-09-28T02:35:40.945Z,8.94
2022-09-28T02:36:40.903Z,8.94
2022-09-28T02:37:40.858Z,9.01
2022-09-28T02:38:40.826Z,9.01
2022-09-28T02:39:40.778Z,8.98
2022-09-28T02:40:40.765Z,8.98
2022-09-28T02:41:40.694Z,9.04
2022-09-28T02:42:40.656Z,9.06
2022-09-28T02:43:40.607Z,9.03
2022-09-28T02:44:40.586Z,9.08
2022-09-28T02:45:40.659Z,9.08
2022-09-28T02:46:40.491Z,9.01
2022-09-28T02:47:40.447Z,8.93
2022-09-28T02:48:43.874Z,8.86
2022-09-28T02:49:40.362Z,8.94
2022-09-28T02:50:40.333Z,8.96
2022-09-28T02:51:40.283Z,8.89
2022-09-28T02:52:40.241Z,8.98
2022-09-28T02:53:40.197Z,8.91
2022-09-28T02:54:40.157Z,9.01
2022-09-28T02:55:40.115Z,8.98
2022-09-28T02:56:40.084Z,9.01
2022-09-28T02:57:40.041Z,8.98
2022-09-28T02:58:39.990Z,8.91
2022-09-28T02:59:39.956Z,8.86
2022-09-28T03:00:39.941Z,8.82
2022-09-28T03:01:39.899Z,8.86
2022-09-28T03:02:39.838Z,8.88
2022-09-28T03:03:39.801Z,8.94
2022-09-28T03:04:39.744Z,9.00
2022-09-28T03:05:39.703Z,8.94
2022-09-28T03:06:39.660Z,8.91
2022-09-28T03:07:39.619Z,8.97
2022-09-28T03:08:39.582Z,8.94
2022-09-28T03:09:39.546Z,9.06
2022-09-28T03:10:39.496Z,9.04
2022-09-28T03:11:39.453Z,8.97
2022-09-28T03:12:39.411Z,9.06
2022-09-28T03:13:39.373Z,8.94
2022-09-28T03:14:39.360Z,8.94
2022-09-28T03:15:39.286Z,8.97
2022-09-28T03:16:39.278Z,8.98
2022-09-28T03:17:39.207Z,8.94
2022-09-28T03:18:39.164Z,8.97
2022-09-28T03:19:39.124Z,9.03
2022-09-28T03:20:39.092Z,8.97
2022-09-28T03:21:39.041Z,9.00
2022-09-28T03:22:39.009Z,8.98
2022-09-28T03:23:38.958Z,9.03
2022-09-28T03:24:38.915Z,9.01
2022-09-28T03:25:38.876Z,9.03
2022-09-28T03:26:38.837Z,8.98
2022-09-28T03:27:38.795Z,9.00
2022-09-28T03:28:38.764Z,8.94
2022-09-28T03:29:38.715Z,9.00
2022-09-28T03:30:38.668Z,8.97
2022-09-28T03:31:38.652Z,8.98
2022-09-28T03:32:38.595Z,9.00
2022-09-28T03:33:38.547Z,9.03
2022-09-28T03:34:38.517Z,8.94
2022-09-28T03:35:38.464Z,8.98
2022-09-28T03:36:38.424Z,9.04
2022-09-28T03:37:38.382Z,9.03
2022-09-28T03:38:38.339Z,9.01
2022-09-28T03:39:38.300Z,9.04
2022-09-28T03:40:38.328Z,9.06
2022-09-28T03:41:38.219Z,9.06
2022-09-28T03:42:38.174Z,9.03
2022-09-28T03:43:38.139Z,9.00
2022-09-28T03:44:38.090Z,8.94
2022-09-28T03:45:38.082Z,9.06
2022-09-28T03:46:38.023Z,9.00
2022-09-28T03:47:37.970Z,9.01
2022-09-28T03:48:37.926Z,9.12
2022-09-28T03:49:37.886Z,9.04
2022-09-28T03:50:37.844Z,9.08
2022-09-28T03:51:37.804Z,9.03
2022-09-28T03:52:37.774Z,9.04
2022-09-28T03:53:37.721Z,9.12
2022-09-28T03:54:37.679Z,9.13
2022-09-28T03:55:37.643Z,9.10
2022-09-28T03:56:37.598Z,9.08
2022-09-28T03:57:37.556Z,9.10
2022-09-28T03:58:37.525Z,9.17
2022-09-28T03:59:37.475Z,9.15
2022-09-28T04:00:37.484Z,9.04
2022-09-28T04:01:37.539Z,9.10
2022-09-28T04:02:37.398Z,9.00
2022-09-28T04:03:37.308Z,9.06
2022-09-28T04:04:37.278Z,9.10
2022-09-28T04:05:37.227Z,9.13
2022-09-28T04:06:37.183Z,9.03
2022-09-28T04:07:37.143Z,9.01
2022-09-28T04:08:37.103Z,8.97
2022-09-28T04:09:37.077Z,9.10
2022-09-28T04:10:37.019Z,8.94
2022-09-28T04:11:59.476Z,9.00
2022-09-28T04:12:36.938Z,9.03
2022-09-28T04:13:36.895Z,9.08
2022-09-28T04:14:36.851Z,9.01
2022-09-28T04:15:36.830Z,8.98
2022-09-28T04:16:36.820Z,9.01
2022-09-28T04:17:40.131Z,9.01
2022-09-28T04:18:36.691Z,9.04
2022-09-28T04:19:36.658Z,9.03
2022-09-28T04:20:36.605Z,9.00
2022-09-28T04:21:36.566Z,9.08
2022-09-28T04:22:36.520Z,9.08
2022-09-28T04:23:36.485Z,9.15
2022-09-28T04:24:36.457Z,9.04
2022-09-28T04:25:36.407Z,9.01
2022-09-28T04:26:36.371Z,9.03
2022-09-28T04:27:36.322Z,9.10
2022-09-28T04:28:36.278Z,9.06
2022-09-28T04:29:36.245Z,9.08
2022-09-28T04:30:36.195Z,9.03
2022-09-28T04:31:36.248Z,9.13
2022-09-28T04:32:36.109Z,9.03
2022-09-28T04:33:36.070Z,9.10
2022-09-28T04:34:39.597Z,9.15
2022-09-28T04:35:35.986Z,9.15
2022-09-28T04:36:35.953Z,9.15
2022-09-28T04:37:35.919Z,9.12
2022-09-28T04:38:52.340Z,9.15
2022-09-28T04:39:35.823Z,9.10
2022-09-28T04:40:35.794Z,9.04
2022-09-28T04:41:35.740Z,9.17
2022-09-28T04:42:35.698Z,9.26
2022-09-28T04:43:35.666Z,9.24
2022-09-28T04:44:35.626Z,9.17
2022-09-28T04:45:35.611Z,9.49
2022-09-28T04:46:35.534Z,9.48
2022-09-28T04:47:35.491Z,9.38
2022-09-28T04:48:35.458Z,9.37
2022-09-28T04:49:35.445Z,9.41
2022-09-28T04:50:35.366Z,9.37
2022-09-28T04:51:35.332Z,9.49
2022-09-28T04:52:35.285Z,9.34
2022-09-28T04:53:35.247Z,9.30
2022-09-28T04:54:35.204Z,9.30
2022-09-28T04:55:35.181Z,9.23
2022-09-28T04:56:35.119Z,9.32
2022-09-28T04:57:35.121Z,9.49
2022-09-28T04:58:35.040Z,9.49
2022-09-28T04:59:34.997Z,9.49
2022-09-28T05:00:34.957Z,9.40
2022-09-28T05:01:34.984Z,9.45
2022-09-28T05:02:34.933Z,9.34
2022-09-28T05:03:34.832Z,9.34
2022-09-28T05:04:34.790Z,9.38
2022-09-28T05:05:34.751Z,9.41
2022-09-28T05:06:34.707Z,9.40
2022-09-28T05:07:34.668Z,9.37
2022-09-28T05:08:34.639Z,9.45
2022-09-28T05:09:38.290Z,9.37
2022-09-28T05:10:34.544Z,9.37
2022-09-28T05:11:34.501Z,9.27
2022-09-28T05:12:34.474Z,9.22
2022-09-28T05:13:34.421Z,9.16
2022-09-28T05:14:34.380Z,9.17
2022-09-28T05:15:34.338Z,9.48
2022-09-28T05:16:34.338Z,9.42
2022-09-28T05:17:34.257Z,9.35
2022-09-28T05:18:34.226Z,9.40
2022-09-28T05:19:34.183Z,9.35
2022-09-28T05:20:34.130Z,9.30
2022-09-28T05:21:34.092Z,9.34
2022-09-28T05:22:34.049Z,9.40
2022-09-28T05:23:34.649Z,9.40
2022-09-28T05:24:33.989Z,9.32
2022-09-28T05:25:33.929Z,9.40
2022-09-28T05:26:33.885Z,9.26
2022-09-28T05:27:33.843Z,9.20
2022-09-28T05:28:33.801Z,9.15
2022-09-28T05:29:33.762Z,9.22
2022-09-28T05:30:33.732Z,9.22
2022-09-28T05:31:33.723Z,9.27
2022-09-28T05:32:33.637Z,9.42
2022-09-28T05:33:33.598Z,9.41
2022-09-28T05:34:33.554Z,9.48
2022-09-28T05:35:33.515Z,9.38
2022-09-28T05:36:33.484Z,9.42
2022-09-28T05:37:33.432Z,9.45
2022-09-28T05:38:33.388Z,9.37
2022-09-28T05:39:33.349Z,9.41
2022-09-28T05:40:33.334Z,9.50
2022-09-28T05:41:33.268Z,9.34
2022-09-28T05:42:33.242Z,9.50
2022-09-28T05:43:33.186Z,9.49
2022-09-28T05:44:33.145Z,9.42
2022-09-28T05:45:33.131Z,9.48
2022-09-28T05:46:33.059Z,9.45
2022-09-28T05:47:33.023Z,9.44
2022-09-28T05:48:32.990Z,9.40
2022-09-28T05:49:32.948Z,9.45
2022-09-28T05:50:32.897Z,9.42
2022-09-28T05:51:32.854Z,9.37
2022-09-28T05:52:32.813Z,9.31
2022-09-28T05:53:32.775Z,9.41
2022-09-28T05:54:32.747Z,9.32
2022-09-28T05:55:32.779Z,9.44
2022-09-28T05:56:32.648Z,9.35
2022-09-28T05:57:32.617Z,9.35
2022-09-28T05:58:32.566Z,9.44
2022-09-28T05:59:32.528Z,9.45
2022-09-28T06:00:33.158Z,9.41
2022-09-28T06:01:32.589Z,9.38
2022-09-28T06:02:32.444Z,9.35
2022-09-28T06:03:32.360Z,9.35
2022-09-28T06:04:32.343Z,9.37
2022-09-28T06:05:32.282Z,9.27
2022-09-28T06:06:32.242Z,9.17
2022-09-28T06:07:32.209Z,9.17
2022-09-28T06:08:32.154Z,9.13
2022-09-28T06:09:32.143Z,9.15
2022-09-28T06:10:32.071Z,9.17
2022-09-28T06:11:32.033Z,9.17
2022-09-28T06:12:32.003Z,9.17
2022-09-28T06:13:31.949Z,9.12
2022-09-28T06:14:31.907Z,9.16
2022-09-28T06:15:31.866Z,9.22
2022-09-28T06:16:31.879Z,9.23
2022-09-28T06:17:31.787Z,9.23
2022-09-28T06:18:31.754Z,9.20
2022-09-28T06:19:31.705Z,9.19
2022-09-28T06:20:31.661Z,9.24
2022-09-28T06:21:31.620Z,9.22
2022-09-28T06:22:31.573Z,9.08
2022-09-28T06:23:31.537Z,9.23
2022-09-28T06:24:31.505Z,9.17
2022-09-28T06:25:31.457Z,9.13
2022-09-28T06:26:31.420Z,9.23
2022-09-28T06:27:31.386Z,9.22
2022-09-28T06:28:31.329Z,9.30
2022-09-28T06:29:31.300Z,9.24
2022-09-28T06:30:31.300Z,9.30
2022-09-28T06:31:31.218Z,9.19
2022-09-28T06:32:31.167Z,9.17
2022-09-28T06:33:31.131Z,9.31
2022-09-28T06:34:31.093Z,9.30
2022-09-28T06:35:31.052Z,9.24
2022-09-28T06:36:31.006Z,9.13
2022-09-28T06:37:30.982Z,9.23
2022-09-28T06:38:30.919Z,9.31
2022-09-28T06:39:30.881Z,9.44
2022-09-28T06:40:30.889Z,9.40
2022-09-28T06:41:30.795Z,9.30
2022-09-28T06:42:30.794Z,9.31
2022-09-28T06:43:34.278Z,9.44
2022-09-28T06:44:30.676Z,9.41
2022-09-28T06:45:30.657Z,9.30
2022-09-28T06:46:30.675Z,9.42
2022-09-28T06:47:30.550Z,9.44
2022-09-28T06:48:30.506Z,9.40
2022-09-28T06:49:30.467Z,9.37
2022-09-28T06:50:30.435Z,9.37
2022-09-28T06:51:30.390Z,9.40
2022-09-28T06:52:30.348Z,9.34
2022-09-28T06:53:30.312Z,9.40
2022-09-28T06:54:30.266Z,9.48
2022-09-28T06:55:30.242Z,9.50
2022-09-28T06:56:32.877Z,9.55
2022-09-28T06:57:30.145Z,9.48
2022-09-28T06:58:30.097Z,9.50
2022-09-28T06:59:30.056Z,9.55
2022-09-28T07:00:30.014Z,9.58
2022-09-28T07:01:30.040Z,9.53
2022-09-28T07:02:29.990Z,9.52
2022-09-28T07:03:29.893Z,9.62
2022-09-28T07:04:29.851Z,9.58
2022-09-28T07:05:29.811Z,9.52
2022-09-28T07:06:29.769Z,9.60
2022-09-28T07:07:29.742Z,9.73
2022-09-28T07:08:29.688Z,9.71
2022-09-28T07:09:33.466Z,9.68
2022-09-28T07:10:29.605Z,9.65
2022-09-28T07:11:29.567Z,9.60
2022-09-28T07:12:29.526Z,9.63
2022-09-28T07:13:49.237Z,9.60
2022-09-28T07:14:47.004Z,9.65
2022-09-28T07:15:29.401Z,9.63
2022-09-28T07:16:41.214Z,9.74
2022-09-28T07:17:29.525Z,9.70
2022-09-28T07:18:29.307Z,9.74
2022-09-28T07:19:29.250Z,9.73
2022-09-28T07:20:29.210Z,9.75
2022-09-28T07:21:30.677Z,9.73
2022-09-28T07:22:41.252Z,9.83
2022-09-28T07:23:29.076Z,9.73
2022-09-28T07:24:29.034Z,9.73
2022-09-28T07:25:29.010Z,9.78
2022-09-28T07:26:28.954Z,9.65
2022-09-28T07:27:29.152Z,9.71
2022-09-28T07:28:28.871Z,9.73
2022-09-28T07:29:28.843Z,9.75
2022-09-28T07:30:28.818Z,9.81
2022-09-28T07:31:28.754Z,9.80
2022-09-28T07:32:28.726Z,9.83
2022-09-28T07:33:28.668Z,9.86
2022-09-28T07:34:28.632Z,9.91
2022-09-28T07:35:28.610Z,9.92
2022-09-28T07:36:28.549Z,10.04
2022-09-28T07:37:28.507Z,9.99
2022-09-28T07:38:28.489Z,9.96
2022-09-28T07:39:28.428Z,10.09
2022-09-28T07:40:28.440Z,9.93
2022-09-28T07:41:28.356Z,10.04
2022-09-28T07:42:28.303Z,10.10
2022-09-28T07:43:28.262Z,10.10
2022-09-28T07:44:28.223Z,10.22
2022-09-28T07:45:28.294Z,10.25
2022-09-28T07:46:28.143Z,10.20
2022-09-28T07:47:33.826Z,10.31
2022-09-28T07:48:28.063Z,10.36
2022-09-28T07:49:37.223Z,10.44
2022-09-28T07:50:27.981Z,10.49
2022-09-28T07:51:27.954Z,10.57
2022-09-28T07:52:27.982Z,10.70
2022-09-28T07:53:27.859Z,10.76
2022-09-28T07:54:27.828Z,10.69
2022-09-28T07:55:27.782Z,10.70
2022-09-28T07:56:27.740Z,10.90
2022-09-28T07:57:27.702Z,10.81
2022-09-28T07:58:27.659Z,10.95
2022-09-28T07:59:27.662Z,11.12
2022-09-28T08:00:29.831Z,11.30
2022-09-28T08:01:27.602Z,11.35
2022-09-28T08:02:27.526Z,11.28
2022-09-28T08:03:27.478Z,11.44
2022-09-28T08:04:27.437Z,11.44
2022-09-28T08:05:27.391Z,11.44
2022-09-28T08:06:27.341Z,11.49
2022-09-28T08:07:27.307Z,11.44
2022-09-28T08:08:27.265Z,11.44
2022-09-28T08:09:27.223Z,11.46
2022-09-28T08:10:27.194Z,11.53
2022-09-28T08:11:27.141Z,11.35
2022-09-28T08:12:27.103Z,11.49
2022-09-28T08:13:27.425Z,11.38
2022-09-28T08:14:27.023Z,11.30
2022-09-28T08:15:26.996Z,11.28
2022-09-28T08:16:27.075Z,11.27
2022-09-28T08:17:26.905Z,11.38
2022-09-28T08:18:26.866Z,11.41
2022-09-28T08:19:26.825Z,11.36
2022-09-28T08:20:26.796Z,11.48
2022-09-28T08:21:26.758Z,11.53
2022-09-28T08:22:26.709Z,11.39
2022-09-28T08:23:26.667Z,11.42
2022-09-28T08:24:26.628Z,11.46
2022-09-28T08:25:26.589Z,11.51
2022-09-28T08:26:26.560Z,11.49
2022-09-28T08:27:26.511Z,11.54
2022-09-28T08:28:26.478Z,11.56
2022-09-28T08:29:26.433Z,11.42
2022-09-28T08:30:26.452Z,11.56
2022-09-28T08:31:26.389Z,11.44
2022-09-28T08:32:26.315Z,11.53
2022-09-28T08:33:26.277Z,11.62
2022-09-28T08:34:26.234Z,11.67
2022-09-28T08:35:26.194Z,11.49
2022-09-28T08:36:26.161Z,11.49
2022-09-28T08:37:26.134Z,11.57
2022-09-28T08:38:26.239Z,11.48
2022-09-28T08:39:26.037Z,11.38
2022-09-28T08:40:26.043Z,11.48
2022-09-28T08:41:25.959Z,11.46
2022-09-28T08:42:25.931Z,11.59
2022-09-28T08:43:25.881Z,11.51
2022-09-28T08:44:25.842Z,11.48
2022-09-28T08:45:25.802Z,11.45
2022-09-28T08:46:27.146Z,11.35
2022-09-28T08:47:25.737Z,11.33
2022-09-28T08:48:25.689Z,11.16
2022-09-28T08:49:30.874Z,11.19
2022-09-28T08:50:25.604Z,11.06
2022-09-28T08:51:25.563Z,11.09
2022-09-28T08:52:25.528Z,11.17
2022-09-28T08:53:25.499Z,11.27
2022-09-28T08:54:25.448Z,11.23
2022-09-28T08:55:25.405Z,11.21
2022-09-28T08:56:25.366Z,11.26
2022-09-28T08:57:25.327Z,11.13
2022-09-28T08:58:25.295Z,11.09
2022-09-28T08:59:25.271Z,11.06
2022-09-28T09:00:25.241Z,11.09
2022-09-28T09:01:25.183Z,11.05
2022-09-28T09:02:25.175Z,11.06
2022-09-28T09:03:25.088Z,11.11
2022-09-28T09:04:25.049Z,11.20
2022-09-28T09:05:25.032Z,11.28
2022-09-28T09:06:24.968Z,11.38
2022-09-28T09:07:24.955Z,11.23
2022-09-28T09:08:24.889Z,11.38
2022-09-28T09:09:24.864Z,11.39
2022-09-28T09:10:24.807Z,11.51
2022-09-28T09:11:24.795Z,11.53
2022-09-28T09:12:24.738Z,11.59
2022-09-28T09:13:24.691Z,11.75
2022-09-28T09:14:24.655Z,11.75
2022-09-28T09:15:24.613Z,11.60
2022-09-28T09:16:24.642Z,11.64
2022-09-28T09:17:24.552Z,11.54
2022-09-28T09:18:24.492Z,11.42
2022-09-28T09:19:24.455Z,11.49
2022-09-28T09:20:24.415Z,11.49
2022-09-28T09:21:24.373Z,11.49
2022-09-28T09:22:24.333Z,11.48
2022-09-28T09:23:24.326Z,11.54
2022-09-28T09:24:24.256Z,11.39
2022-09-28T09:25:24.217Z,11.45
2022-09-28T09:26:26.153Z,11.41
2022-09-28T09:27:24.146Z,11.33
2022-09-28T09:28:24.096Z,11.45
2022-09-28T09:29:24.056Z,11.54
2022-09-28T09:30:24.441Z,11.45
2022-09-28T09:31:24.011Z,11.60
2022-09-28T09:32:23.938Z,11.63
2022-09-28T09:33:23.899Z,11.78
2022-09-28T09:34:23.860Z,11.72
2022-09-28T09:35:29.040Z,11.90
2022-09-28T09:36:23.794Z,12.01
2022-09-28T09:37:23.743Z,12.11
2022-09-28T09:38:23.699Z,12.12
2022-09-28T09:39:23.658Z,12.33
2022-09-28T09:40:23.653Z,12.33
2022-09-28T09:41:23.592Z,12.22
2022-09-28T09:42:23.540Z,12.25
2022-09-28T09:43:26.753Z,12.30
2022-09-28T09:44:23.467Z,12.40
2022-09-28T09:45:23.424Z,12.34
2022-09-28T09:46:23.452Z,12.30
2022-09-28T09:47:23.353Z,12.48
2022-09-28T09:48:23.319Z,12.63
2022-09-28T09:49:23.266Z,12.61
2022-09-28T09:50:23.272Z,12.62
2022-09-28T09:51:23.188Z,12.58
2022-09-28T09:52:23.219Z,12.69
2022-09-28T09:53:23.119Z,12.77
2022-09-28T09:54:23.070Z,12.81
2022-09-28T09:55:27.439Z,12.77
2022-09-28T09:56:22.996Z,12.76
2022-09-28T09:57:22.956Z,12.66
2022-09-28T09:58:22.919Z,12.55
2022-09-28T09:59:22.891Z,12.46
2022-09-28T10:00:22.841Z,12.46
2022-09-28T10:01:22.818Z,12.30
2022-09-28T10:02:22.787Z,12.25
2022-09-28T10:03:22.723Z,12.16
2022-09-28T10:04:23.290Z,12.18
2022-09-28T10:05:22.670Z,12.15
2022-09-28T10:06:22.604Z,12.26
2022-09-28T10:07:22.566Z,12.25
2022-09-28T10:08:22.610Z,12.29
2022-09-28T10:09:22.501Z,12.25
2022-09-28T10:10:22.473Z,12.31
2022-09-28T10:11:22.461Z,12.34
2022-09-28T10:12:22.373Z,12.31
2022-09-28T10:13:22.345Z,12.34
2022-09-28T10:14:22.300Z,12.54
2022-09-28T10:15:22.273Z,12.70
2022-09-28T10:16:22.254Z,12.91
2022-09-28T10:17:22.185Z,12.96
2022-09-28T10:18:22.135Z,13.36
2022-09-28T10:19:22.098Z,13.47
2022-09-28T10:20:22.102Z,13.57
2022-09-28T10:21:22.032Z,13.72
2022-09-28T10:22:21.997Z,13.73
2022-09-28T10:23:21.951Z,13.68
2022-09-28T10:24:21.908Z,13.91
2022-09-28T10:25:21.861Z,13.90
2022-09-28T10:26:24.914Z,13.84
2022-09-28T10:27:21.803Z,13.80
2022-09-28T10:28:21.749Z,13.79
2022-09-28T10:29:21.706Z,13.69
2022-09-28T10:30:21.697Z,13.62
2022-09-28T10:31:21.661Z,13.54
2022-09-28T10:32:21.610Z,13.61
2022-09-28T10:33:21.570Z,13.62
2022-09-28T10:34:21.518Z,13.46
2022-09-28T10:35:21.475Z,13.38
2022-09-28T10:36:21.441Z,13.46
2022-09-28T10:37:21.404Z,13.48
2022-09-28T10:38:21.385Z,13.48
2022-09-28T10:39:21.328Z,13.28
2022-09-28T10:40:21.336Z,13.44
2022-09-28T10:41:21.274Z,13.50
2022-09-28T10:42:21.219Z,13.54
2022-09-28T10:43:21.171Z,13.46
2022-09-28T10:44:21.148Z,13.62
2022-09-28T10:45:21.093Z,13.66
2022-09-28T10:46:21.208Z,13.73
2022-09-28T10:47:21.024Z,13.66
2022-09-28T10:48:20.981Z,13.73
2022-09-28T10:49:20.963Z,13.88
2022-09-28T10:50:20.909Z,13.88
2022-09-28T10:51:20.868Z,13.86
2022-09-28T10:52:20.827Z,13.75
2022-09-28T10:53:20.790Z,13.53
2022-09-28T10:54:20.748Z,13.53
2022-09-28T10:55:20.721Z,13.51
2022-09-28T10:56:21.213Z,13.57
2022-09-28T10:57:20.636Z,13.48
2022-09-28T10:58:20.596Z,13.48
2022-09-28T10:59:20.961Z,13.43
2022-09-28T11:00:20.519Z,13.55
2022-09-28T11:01:20.562Z,13.69
2022-09-28T11:02:20.478Z,13.98
2022-09-28T11:03:20.403Z,14.02
2022-09-28T11:04:20.379Z,14.12
2022-09-28T11:05:20.329Z,14.17
2022-09-28T11:06:20.293Z,14.23
2022-09-28T11:07:20.258Z,14.20
2022-09-28T11:08:20.214Z,14.17
2022-09-28T11:09:20.234Z,13.99
2022-09-28T11:10:20.161Z,13.94
2022-09-28T11:11:20.105Z,13.88
2022-09-28T11:12:20.125Z,13.76
2022-09-28T11:13:20.025Z,13.62
2022-09-28T11:14:19.994Z,13.57
2022-09-28T11:15:19.954Z,13.62
2022-09-28T11:16:20.042Z,13.75
2022-09-28T11:17:19.874Z,13.69
2022-09-28T11:18:19.831Z,13.90
2022-09-28T11:19:19.794Z,13.93
2022-09-28T11:20:24.722Z,13.99
2022-09-28T11:21:19.735Z,14.11
2022-09-28T11:22:19.692Z,14.09
2022-09-28T11:23:19.650Z,14.17
2022-09-28T11:24:19.829Z,14.30
2022-09-28T11:25:19.564Z,14.16
2022-09-28T11:26:19.529Z,14.24
2022-09-28T11:27:19.486Z,14.20
2022-09-28T11:28:19.463Z,14.16
2022-09-28T11:29:19.520Z,13.99
2022-09-28T11:30:19.376Z,13.84
2022-09-28T11:31:19.342Z,13.73
2022-09-28T11:32:19.300Z,13.88
2022-09-28T11:33:19.260Z,13.83
2022-09-28T11:34:19.369Z,13.73
2022-09-28T11:35:19.183Z,13.72
2022-09-28T11:36:19.151Z,13.72
2022-09-28T11:37:19.108Z,13.62
2022-09-28T11:38:19.239Z,13.71
2022-09-28T11:39:19.451Z,13.84
2022-09-28T11:40:19.041Z,13.84
2022-09-28T11:41:18.957Z,13.91
2022-09-28T11:42:18.918Z,13.87
2022-09-28T11:43:23.729Z,13.87
2022-09-28T11:44:19.003Z,14.05
2022-09-28T11:45:18.805Z,14.05
2022-09-28T11:46:18.806Z,14.09
2022-09-28T11:47:18.729Z,14.13
2022-09-28T11:48:18.685Z,14.04
2022-09-28T11:49:18.648Z,14.21
2022-09-28T11:50:22.931Z,14.24
2022-09-28T11:51:18.573Z,14.11
2022-09-28T11:52:18.546Z,14.04
2022-09-28T11:53:18.498Z,14.09
2022-09-28T11:54:18.542Z,14.02
2022-09-28T11:55:18.420Z,14.13
2022-09-28T11:56:18.389Z,14.20
2022-09-28T11:57:18.345Z,14.16
2022-09-28T11:58:18.320Z,14.26
2022-09-28T11:59:18.265Z,14.41
2022-09-28T12:00:18.228Z,14.30
2022-09-28T12:01:19.156Z,14.23
2022-09-28T12:02:18.216Z,14.19
2022-09-28T12:03:18.204Z,14.26
2022-09-28T12:04:18.157Z,14.19
2022-09-28T12:05:20.840Z,14.17
2022-09-28T12:06:17.995Z,13.99
2022-09-28T12:07:17.959Z,13.96
2022-09-28T12:08:17.946Z,14.05
2022-09-28T12:09:17.949Z,14.09
2022-09-28T12:10:17.859Z,14.23
2022-09-28T12:11:17.807Z,14.27
2022-09-28T12:12:17.769Z,14.36
2022-09-28T12:13:17.731Z,14.61
2022-09-28T12:14:17.692Z,14.83
2022-09-28T12:15:17.668Z,15.03
2022-09-28T12:16:38.914Z,15.44
2022-09-28T12:17:20.100Z,15.55
2022-09-28T12:18:17.606Z,15.71
2022-09-28T12:19:17.611Z,15.77
2022-09-28T12:20:17.479Z,15.73
2022-09-28T12:21:17.434Z,15.70
2022-09-28T12:22:17.394Z,15.68
2022-09-28T12:23:17.358Z,15.68
2022-09-28T12:24:17.325Z,15.64
2022-09-28T12:25:17.302Z,15.60
2022-09-28T12:26:17.249Z,15.56
2022-09-28T12:27:17.216Z,15.33
2022-09-28T12:28:17.181Z,15.43
2022-09-28T12:29:17.146Z,15.31
2022-09-28T12:30:17.107Z,15.33
2022-09-28T12:31:17.144Z,15.25
2022-09-28T12:32:17.038Z,15.22
2022-09-28T12:33:17.002Z,15.11
2022-09-28T12:34:16.966Z,15.09
2022-09-28T12:35:16.933Z,15.13
2022-09-28T12:36:16.894Z,15.12
2022-09-28T12:37:16.869Z,15.05
2022-09-28T12:38:16.828Z,15.16
2022-09-28T12:39:23.994Z,15.27
2022-09-28T12:40:16.819Z,15.46
2022-09-28T12:41:16.736Z,15.37
2022-09-28T12:42:16.699Z,15.30
2022-09-28T12:43:16.645Z,15.20
2022-09-28T12:44:16.607Z,15.28
2022-09-28T12:45:16.580Z,15.25
2022-09-28T12:46:16.600Z,15.27
2022-09-28T12:47:16.497Z,15.30
2022-09-28T12:48:16.478Z,15.22
2022-09-28T12:51:16.351Z,15.09
2022-09-28T12:52:16.316Z,15.18
2022-09-28T12:53:16.281Z,14.93
2022-09-28T12:54:16.286Z,14.94
2022-09-28T12:55:16.222Z,14.91
2022-09-28T12:56:18.102Z,14.79
2022-09-28T12:57:16.132Z,14.82
2022-09-28T12:58:16.100Z,14.78
2022-09-28T12:59:16.133Z,14.72
2022-09-28T13:00:16.031Z,14.74
2022-09-28T13:01:15.996Z,14.72
2022-09-28T13:02:15.996Z,14.74
2022-09-28T13:03:15.914Z,14.71
2022-09-28T13:04:15.869Z,14.69
2022-09-28T13:05:15.834Z,14.80
2022-09-28T13:06:15.807Z,14.71
2022-09-28T13:07:15.761Z,14.79
2022-09-28T13:08:15.721Z,14.86
2022-09-28T13:09:15.785Z,14.87